createdAt,value
2018-02-15T00:02:26.293Z,20.33
2018-02-15T00:07:20.576Z,20.77
2018-02-15T00:12:14.852Z,17.77
2018-02-15T00:17:09.964Z,18.60
2018-02-15T00:22:05.124Z,21.57
2018-02-15T00:26:59.388Z,16.37
2018-02-15T00:31:53.678Z,15.63
2018-02-15T00:36:49.510Z,17.97
2018-02-15T00:41:44.352Z,20.33
2018-02-15T00:46:39.526Z,16.60
2018-02-15T00:51:33.918Z,15.93
2018-02-15T00:56:28.320Z,15.23
2018-02-15T01:01:22.608Z,19.03
2018-02-15T01:06:16.872Z,16.97
2018-02-15T01:11:11.925Z,16.40
2018-02-15T01:16:06.188Z,14.93
2018-02-15T01:21:01.296Z,16.13
2018-02-15T01:25:56.402Z,15.47
2018-02-15T01:30:50.707Z,16.03
2018-02-15T01:35:44.989Z,17.17
2018-02-15T01:40:39.252Z,16.10
2018-02-15T01:45:33.672Z,16.17
2018-02-15T01:50:28.106Z,13.77
2018-02-15T01:55:22.390Z,14.73
2018-02-15T02:00:16.687Z,16.90
2018-02-15T02:05:11.005Z,16.60
2018-02-15T02:10:05.432Z,13.77
2018-02-15T02:15:00.468Z,15.10
2018-02-15T02:19:55.546Z,16.03
2018-02-15T02:24:49.818Z,15.23
2018-02-15T02:29:44.096Z,15.83
2018-02-15T02:34:38.536Z,16.13
2018-02-15T02:39:32.831Z,17.73
2018-02-15T02:44:27.104Z,15.07
2018-02-15T02:49:21.421Z,17.30
2018-02-15T02:54:15.800Z,17.10
2018-02-15T02:59:10.078Z,15.23
2018-02-15T03:04:05.135Z,15.90
2018-02-15T03:08:59.544Z,16.97
2018-02-15T03:13:53.820Z,17.67
2018-02-15T03:18:48.873Z,17.90
2018-02-15T03:23:43.189Z,16.63
2018-02-15T03:28:37.781Z,25.37
2018-02-15T03:33:32.108Z,17.00
2018-02-15T03:38:26.403Z,18.47
2018-02-15T03:43:20.675Z,19.00
2018-02-15T03:48:14.964Z,22.40
2018-02-15T03:53:09.288Z,21.40
2018-02-15T03:58:03.792Z,19.80
2018-02-15T04:02:58.291Z,25.43
2018-02-15T04:07:52.594Z,24.07
2018-02-15T04:12:46.948Z,25.23
2018-02-15T04:17:42.208Z,31.67
2018-02-15T04:22:36.478Z,28.67
2018-02-15T04:27:31.535Z,28.53
2018-02-15T04:32:29.005Z,35.80
2018-02-15T04:37:23.673Z,38.70
2018-02-15T04:42:18.731Z,39.70
2018-02-15T04:47:13.037Z,41.13
2018-02-15T04:52:07.618Z,45.97
2018-02-15T04:57:02.528Z,43.07
2018-02-15T05:01:56.992Z,34.67
2018-02-15T05:06:51.280Z,33.63
2018-02-15T05:11:45.702Z,51.00
2018-02-15T05:16:40.003Z,38.73
2018-02-15T05:21:34.314Z,48.60
2018-02-15T05:26:29.354Z,44.83
2018-02-15T05:31:24.535Z,41.70
2018-02-15T05:36:18.823Z,45.97
2018-02-15T05:41:12.873Z,42.47
2018-02-15T05:46:07.931Z,44.63
2018-02-15T05:51:02.219Z,47.83
2018-02-15T05:55:56.496Z,40.57
2018-02-15T06:00:50.820Z,35.80
2018-02-15T06:05:45.270Z,46.93
2018-02-15T06:10:40.471Z,52.00
2018-02-15T06:15:35.025Z,44.30
2018-02-15T06:20:30.116Z,55.57
2018-02-15T06:25:24.584Z,42.33
2018-02-15T06:30:18.922Z,44.70
2018-02-15T06:35:14.043Z,37.97
2018-02-15T06:40:08.372Z,48.10
2018-02-15T06:45:03.532Z,43.00
2018-02-15T06:49:57.875Z,43.93
2018-02-15T06:54:52.988Z,37.37
2018-02-15T06:59:48.305Z,40.67
2018-02-15T07:04:42.616Z,32.07
2018-02-15T07:09:37.711Z,35.83
2018-02-15T07:14:32.086Z,36.93
2018-02-15T07:19:27.522Z,29.13
2018-02-15T07:24:22.230Z,32.27
2018-02-15T07:29:16.705Z,29.57
2018-02-15T07:34:11.502Z,28.57
2018-02-15T07:39:06.325Z,26.33
2018-02-15T07:44:00.694Z,23.87
2018-02-15T07:48:55.098Z,20.67
2018-02-15T07:53:49.830Z,26.30
2018-02-15T07:58:45.307Z,27.27
2018-02-15T08:03:40.223Z,27.00
2018-02-15T08:08:34.708Z,27.73
2018-02-15T08:13:29.055Z,29.33
2018-02-15T08:18:23.878Z,27.47
2018-02-15T08:23:19.162Z,26.50
2018-02-15T08:28:13.608Z,28.07
2018-02-15T08:33:09.167Z,26.50
2018-02-15T08:38:04.450Z,27.70
2018-02-15T08:42:58.921Z,25.83
2018-02-15T08:47:53.541Z,30.67
2018-02-15T08:52:47.921Z,30.77
2018-02-15T08:57:42.255Z,28.90
2018-02-15T09:02:36.608Z,29.93
2018-02-15T09:07:31.690Z,25.80
2018-02-15T09:12:26.295Z,34.00
2018-02-15T09:17:20.830Z,30.70
2018-02-15T09:22:15.912Z,29.63
2018-02-15T09:27:10.319Z,32.30
2018-02-15T09:32:04.799Z,29.33
2018-02-15T09:36:59.195Z,30.37
2018-02-15T09:41:53.518Z,29.63
2018-02-15T09:46:48.266Z,34.20
2018-02-15T09:51:43.475Z,28.20
2018-02-15T09:56:39.416Z,33.80
2018-02-15T10:01:35.624Z,36.13
2018-02-15T10:06:30.111Z,32.70
2018-02-15T10:11:24.677Z,34.87
2018-02-15T10:16:18.989Z,34.47
2018-02-15T10:21:14.212Z,33.07
2018-02-15T10:26:09.339Z,31.67
2018-02-15T10:31:04.698Z,34.27
2018-02-15T10:35:59.007Z,33.23
2018-02-15T10:40:53.454Z,35.93
2018-02-15T10:45:48.542Z,35.43
2018-02-15T10:50:43.170Z,33.67
2018-02-15T10:55:37.653Z,37.97
2018-02-15T11:00:38.517Z,32.80
2018-02-15T11:05:32.804Z,31.27
2018-02-15T11:10:28.379Z,30.40
2018-02-15T11:15:23.467Z,31.10
2018-02-15T11:20:18.729Z,26.43
2018-02-15T11:25:15.355Z,29.27
2018-02-15T11:30:11.988Z,30.23
2018-02-15T11:35:06.314Z,25.70
2018-02-15T11:40:02.644Z,29.33
2018-02-15T11:44:57.155Z,28.20
2018-02-15T11:49:51.772Z,30.20
2018-02-15T11:54:46.460Z,26.93
2018-02-15T11:59:43.153Z,27.23
2018-02-15T12:04:37.641Z,24.83
2018-02-15T12:09:32.034Z,22.30
2018-02-15T12:14:26.582Z,25.97
2018-02-15T12:19:21.129Z,21.40
2018-02-15T12:24:15.632Z,21.43
2018-02-15T12:29:10.152Z,21.57
2018-02-15T12:34:04.472Z,21.63
2018-02-15T12:38:58.795Z,29.27
2018-02-15T12:43:53.883Z,22.47
2018-02-15T12:48:48.271Z,20.90
2018-02-15T12:53:42.600Z,23.00
2018-02-15T12:58:37.806Z,19.70
2018-02-15T13:03:32.135Z,22.40
2018-02-15T13:08:26.492Z,22.20
2018-02-15T13:13:33.930Z,19.40
2018-02-15T13:18:28.559Z,20.30
2018-02-15T13:23:23.648Z,21.10
2018-02-15T13:28:35.061Z,24.17
2018-02-15T13:33:29.707Z,21.57
2018-02-15T13:38:24.556Z,22.63
2018-02-15T13:43:18.897Z,24.60
2018-02-15T13:48:13.414Z,21.07
2018-02-15T13:53:08.885Z,20.07
2018-02-15T13:58:03.259Z,23.90
2018-02-15T14:02:59.232Z,21.20
2018-02-15T14:07:53.782Z,22.60
2018-02-15T14:12:50.136Z,23.37
2018-02-15T14:17:44.453Z,21.73
2018-02-15T14:22:39.890Z,25.70
2018-02-15T14:27:34.334Z,23.60
2018-02-15T14:32:28.933Z,23.03
2018-02-15T14:37:23.304Z,21.27
2018-02-15T14:42:17.848Z,22.77
2018-02-15T14:47:12.352Z,21.77
2018-02-15T14:52:06.952Z,21.73
2018-02-15T14:57:01.724Z,18.60
2018-02-15T15:01:57.242Z,18.67
2018-02-15T15:06:52.470Z,18.73
2018-02-15T15:11:48.471Z,19.77
2018-02-15T15:16:43.122Z,19.97
2018-02-15T15:21:38.577Z,20.77
2018-02-15T15:26:32.889Z,19.10
2018-02-15T15:31:27.458Z,21.10
2018-02-15T15:36:21.836Z,18.03
2018-02-15T15:41:16.511Z,18.03
2018-02-15T15:46:11.783Z,20.00
2018-02-15T15:51:06.889Z,19.10
2018-02-15T15:56:01.630Z,21.37
2018-02-15T16:00:56.705Z,19.47
2018-02-15T16:05:51.157Z,18.87
2018-02-15T16:10:46.262Z,20.77
2018-02-15T16:15:41.807Z,22.00
2018-02-15T16:20:37.066Z,19.07
2018-02-15T16:25:31.465Z,21.73
2018-02-15T16:30:25.911Z,19.20
2018-02-15T16:35:20.375Z,19.03
2018-02-15T16:40:15.163Z,20.83
2018-02-15T16:45:09.675Z,18.80
2018-02-15T16:50:04.062Z,19.57
2018-02-15T16:54:58.513Z,20.47
2018-02-15T16:59:52.843Z,18.03
2018-02-15T17:04:47.181Z,17.20
2018-02-15T17:09:41.628Z,18.07
2018-02-15T17:14:35.988Z,19.23
2018-02-15T17:19:30.315Z,17.40
2018-02-15T17:24:24.940Z,20.50
2018-02-15T17:29:19.754Z,24.90
2018-02-15T17:34:14.271Z,23.53
2018-02-15T17:39:08.601Z,19.30
2018-02-15T17:44:03.676Z,19.73
2018-02-15T17:48:58.367Z,22.73
2018-02-15T17:53:52.991Z,22.00
2018-02-15T17:58:47.346Z,24.03
2018-02-15T18:03:43.320Z,19.13
2018-02-15T18:08:37.734Z,25.57
2018-02-15T18:13:32.049Z,24.80
2018-02-15T18:18:26.350Z,23.57
2018-02-15T18:23:20.825Z,19.47
2018-02-15T18:28:15.277Z,20.20
2018-02-15T18:33:10.383Z,17.73
2018-02-15T18:38:04.720Z,16.57
2018-02-15T18:42:59.873Z,18.30
2018-02-15T18:47:54.257Z,25.80
2018-02-15T18:52:48.755Z,20.50
2018-02-15T18:57:43.214Z,18.60
2018-02-15T19:02:37.733Z,17.30
2018-02-15T19:07:32.244Z,22.47
2018-02-15T19:12:27.444Z,25.13
2018-02-15T19:17:21.970Z,20.77
2018-02-15T19:22:17.849Z,18.63
2018-02-15T19:27:12.262Z,22.80
2018-02-15T19:32:06.679Z,21.80
2018-02-15T19:37:01.152Z,19.93
2018-02-15T19:41:55.691Z,19.93
2018-02-15T19:46:50.233Z,21.10
2018-02-15T19:51:45.652Z,19.97
2018-02-15T19:56:41.328Z,20.40
2018-02-15T20:01:35.683Z,22.37
2018-02-15T20:06:30.027Z,20.77
2018-02-15T20:11:24.568Z,19.37
2018-02-15T20:16:19.085Z,26.77
2018-02-15T20:21:13.848Z,22.77
2018-02-15T20:41:58.283Z,27.47
2018-02-15T20:46:52.818Z,32.73
2018-02-15T21:07:39.486Z,41.20
2018-02-15T21:12:33.790Z,42.60
2018-02-15T21:17:28.178Z,62.23
2018-02-15T21:22:22.302Z,55.17
2018-02-15T21:27:16.717Z,55.70
2018-02-15T21:32:11.181Z,68.23
2018-02-15T21:37:05.780Z,52.73
2018-02-15T21:42:00.271Z,65.53
2018-02-15T21:46:55.614Z,50.50
2018-02-15T21:51:50.747Z,52.70
2018-02-15T21:56:45.424Z,58.30
2018-02-15T22:01:40.549Z,47.70
2018-02-15T22:06:35.794Z,48.83
2018-02-15T22:11:30.104Z,51.13
2018-02-15T22:16:24.460Z,49.53
2018-02-15T22:21:18.840Z,52.70
2018-02-15T22:26:13.142Z,51.30
2018-02-15T22:31:07.444Z,50.30
2018-02-15T22:36:01.950Z,52.40
2018-02-15T22:40:56.407Z,46.23
2018-02-15T22:45:50.720Z,55.17
2018-02-15T22:50:45.031Z,68.90
2018-02-15T22:55:39.602Z,56.40
2018-02-15T23:00:34.330Z,75.27
2018-02-15T23:05:28.745Z,97.63
2018-02-15T23:10:23.144Z,70.33
2018-02-15T23:15:17.579Z,68.03
2018-02-15T23:20:12.126Z,79.17
2018-02-15T23:25:06.218Z,69.30
2018-02-15T23:30:01.553Z,64.63
2018-02-15T23:34:56.869Z,51.97
2018-02-15T23:39:53.567Z,58.57
2018-02-15T23:44:48.318Z,69.13
2018-02-15T23:49:45.278Z,81.70
2018-02-15T23:54:40.361Z,66.97
2018-02-15T23:59:34.666Z,61.43
